Terminal Aerodrome Forecast
Issued by NWS

Home | Current Version | Previous Version | Text Only | Print | Product List | Glossary On
Versions: 1 2 3 4 5 6 7 8 9 10 11 12 13 14 15 16 17
000
FTUS43 KILX 201740
TAFBMI
TAF
KBMI 201740Z 2018/2118 19007KT P6SM VCSH SCT050 BKN120
      TEMPO 2018/2021 BKN050
     FM202100 18006KT P6SM VCTS SCT050CB BKN120
      TEMPO 2021/2024 BKN045CB
     FM210100 15007KT P6SM BKN070
     FM210600 15006KT P6SM VCTS BKN050CB
     FM210900 18006KT 6SM BR SCT045 BKN090
     FM211400 21009KT P6SM SCT040 BKN080=

USA.gov is the U.S. government's official web portal to all federal, state and local government web resources and services.